Terminal Aerodrome Forecast
Issued by NWS

Current Version | Previous Version | Text Only | Print | Product List | Glossary On
Versions: 1 2 3 4 5 6 7 8 9 10 11 12 13 14
728
FTUS46 KHNX 172320
TAFFAT
TAF
KFAT 172320Z 1800/1824 VRB04KT P6SM SKC
     FM181500 VRB03KT 4SM BR SKC
     FM181700 VRB03KT P6SM SKC=

USA.gov is the U.S. government's official web portal to all federal, state and local government web resources and services.